createdAt,value
2023-03-17T00:01:09.820Z,99116.25
2023-03-17T00:05:24.311Z,99111.69
2023-03-17T00:09:27.084Z,99117.41
2023-03-17T00:13:31.175Z,99121.38
2023-03-17T00:17:33.836Z,99122.66
2023-03-17T00:21:36.035Z,99126.03
2023-03-17T00:25:43.098Z,99117.75
2023-03-17T00:29:45.357Z,99114.59
2023-03-17T00:33:49.024Z,99112.66
2023-03-17T00:37:54.876Z,99113.44
2023-03-17T00:41:57.080Z,99112.47
2023-03-17T00:45:59.165Z,99107.06
2023-03-17T00:50:01.377Z,99103.22
2023-03-17T00:54:03.683Z,99104.34
2023-03-17T00:58:33.966Z,99099.38
2023-03-17T01:02:36.285Z,99104.69
2023-03-17T01:06:38.682Z,99089.31
2023-03-17T01:10:41.771Z,99084.31
2023-03-17T01:14:44.142Z,99084.88
2023-03-17T01:18:47.374Z,99081.03
2023-03-17T01:22:50.703Z,99072.19
2023-03-17T01:26:52.891Z,99057.44
2023-03-17T01:30:55.644Z,99048.97
2023-03-17T01:34:59.258Z,99057.59
2023-03-17T01:39:01.937Z,99053.28
2023-03-17T01:43:19.043Z,99045.09
2023-03-17T01:47:22.292Z,99040.69
2023-03-17T01:51:35.985Z,99043.94
2023-03-17T01:55:38.643Z,99038.25
2023-03-17T01:59:50.254Z,99037.25
2023-03-17T02:03:53.727Z,99038.44
2023-03-17T02:07:58.779Z,99037.88
2023-03-17T02:12:05.405Z,99029.56
2023-03-17T02:16:08.124Z,99030.75
2023-03-17T02:20:16.311Z,99040.47
2023-03-17T02:24:28.040Z,99039.22
2023-03-17T02:28:31.798Z,99026.84
2023-03-17T02:32:38.049Z,99030.28
2023-03-17T02:36:40.797Z,99023.81
2023-03-17T02:40:43.617Z,99027.88
2023-03-17T02:44:45.874Z,99027.69
2023-03-17T02:48:49.239Z,99031.53
2023-03-17T02:52:51.892Z,99016.00
2023-03-17T02:56:54.032Z,99026.31
2023-03-17T03:00:56.681Z,99011.13
2023-03-17T03:04:59.289Z,99008.47
2023-03-17T03:09:01.880Z,99018.75
2023-03-17T03:13:09.027Z,99019.56
2023-03-17T03:17:12.832Z,99023.00
2023-03-17T03:21:15.513Z,99030.47
2023-03-17T03:25:18.008Z,99032.31
2023-03-17T03:29:20.437Z,99035.97
2023-03-17T03:33:22.891Z,99044.50
2023-03-17T03:37:26.081Z,99044.13
2023-03-17T03:41:28.338Z,99043.09
2023-03-17T03:45:30.997Z,99034.59
2023-03-17T03:49:33.574Z,99042.28
2023-03-17T03:53:35.758Z,99042.06
2023-03-17T03:57:37.978Z,99031.38
2023-03-17T04:01:40.247Z,99038.84
2023-03-17T04:05:42.341Z,99035.19
2023-03-17T04:09:44.476Z,99038.38
2023-03-17T04:13:46.646Z,99035.66
2023-03-17T04:17:48.819Z,99039.66
2023-03-17T04:21:53.592Z,99041.53
2023-03-17T04:25:56.877Z,99046.38
2023-03-17T04:29:59.453Z,99042.38
2023-03-17T04:34:01.787Z,99041.13
2023-03-17T04:38:04.451Z,99034.72
2023-03-17T04:42:06.949Z,99035.50
2023-03-17T04:46:09.513Z,99036.16
2023-03-17T04:50:12.330Z,99034.38
2023-03-17T04:54:14.501Z,99026.56
2023-03-17T04:58:29.868Z,99030.38
2023-03-17T05:02:32.543Z,99047.94
2023-03-17T05:06:35.969Z,99043.50
2023-03-17T05:10:38.038Z,99047.59
2023-03-17T05:14:40.639Z,99048.81
2023-03-17T05:18:43.789Z,99050.25
2023-03-17T05:22:46.622Z,99058.31
2023-03-17T05:26:48.873Z,99056.75
2023-03-17T05:30:52.201Z,99053.94
2023-03-17T05:34:54.584Z,99057.13
2023-03-17T05:38:56.765Z,99055.75
2023-03-17T05:42:58.918Z,99062.44
2023-03-17T05:47:01.234Z,99064.84
2023-03-17T05:51:03.719Z,99066.84
2023-03-17T05:55:07.910Z,99066.88
2023-03-17T05:59:14.968Z,99067.31
2023-03-17T06:03:17.303Z,99068.97
2023-03-17T06:07:19.475Z,99079.50
2023-03-17T06:11:22.180Z,99083.97
2023-03-17T06:20:19.517Z,99068.84
2023-03-17T06:24:21.801Z,99063.59
2023-03-17T06:28:25.073Z,99066.19
2023-03-17T06:32:27.895Z,99058.81
2023-03-17T06:36:32.618Z,99060.97
2023-03-17T06:40:35.099Z,99055.94
2023-03-17T06:44:38.073Z,99057.25
2023-03-17T06:48:40.240Z,99054.22
2023-03-17T06:52:42.828Z,99048.41
2023-03-17T06:56:45.351Z,99046.84
2023-03-17T07:00:49.454Z,99047.16
2023-03-17T07:04:53.738Z,99041.06
2023-03-17T07:08:56.837Z,99036.47
2023-03-17T07:13:05.406Z,99028.34
2023-03-17T07:17:14.876Z,99025.00
2023-03-17T07:21:21.113Z,99028.91
2023-03-17T07:25:24.222Z,99018.75
2023-03-17T07:29:32.991Z,99013.19
2023-03-17T07:33:37.142Z,99019.75
2023-03-17T07:37:41.952Z,99019.94
2023-03-17T07:41:44.455Z,99017.00
2023-03-17T07:45:53.692Z,99017.75
2023-03-17T07:49:58.176Z,99018.03
2023-03-17T07:54:04.765Z,99015.66
2023-03-17T07:58:15.794Z,99019.91
2023-03-17T08:02:23.445Z,99011.59
2023-03-17T08:06:26.740Z,99012.66
2023-03-17T08:10:29.315Z,99002.59
2023-03-17T08:14:32.461Z,99003.84
2023-03-17T08:18:36.396Z,99000.44
2023-03-17T08:22:40.981Z,98993.53
2023-03-17T08:26:48.683Z,98981.91
2023-03-17T08:30:51.293Z,98987.91
2023-03-17T08:34:54.860Z,98992.41
2023-03-17T08:38:59.113Z,98987.44
2023-03-17T08:43:01.493Z,98988.41
2023-03-17T08:47:04.454Z,98988.50
2023-03-17T08:51:11.316Z,98991.00
2023-03-17T08:55:15.542Z,98982.78
2023-03-17T08:59:17.908Z,98976.47
2023-03-17T09:03:21.668Z,98987.94
2023-03-17T09:07:24.010Z,98982.69
2023-03-17T09:11:30.658Z,98979.75
2023-03-17T09:15:39.178Z,98969.16
2023-03-17T09:19:43.886Z,98971.28
2023-03-17T09:23:49.908Z,98975.28
2023-03-17T09:27:55.904Z,98979.34
2023-03-17T09:31:58.193Z,98972.28
2023-03-17T09:36:00.762Z,98971.78
2023-03-17T09:40:08.516Z,98973.41
2023-03-17T09:44:26.424Z,98956.91
2023-03-17T09:48:46.994Z,98979.63
2023-03-17T09:52:55.538Z,98978.09
2023-03-17T09:57:06.364Z,98970.34
2023-03-17T10:01:10.752Z,98967.94
2023-03-17T10:05:42.530Z,98968.50
2023-03-17T10:10:15.665Z,98965.81
2023-03-17T10:14:22.541Z,98964.78
2023-03-17T10:18:31.462Z,98944.19
2023-03-17T10:23:18.463Z,98946.31
2023-03-17T10:27:21.740Z,98940.94
2023-03-17T10:31:30.820Z,98937.47
2023-03-17T10:35:37.216Z,98922.16
2023-03-17T10:39:49.460Z,98916.19
2023-03-17T10:43:52.283Z,98927.97
2023-03-17T10:47:57.486Z,98918.84
2023-03-17T10:52:00.988Z,98917.47
2023-03-17T10:56:20.544Z,98905.91
2023-03-17T11:00:23.538Z,98918.91
2023-03-17T11:04:29.212Z,98913.50
2023-03-17T11:08:35.562Z,98905.44
2023-03-17T11:12:41.440Z,98908.75
2023-03-17T11:16:56.956Z,98903.31
2023-03-17T11:21:20.163Z,98900.13
2023-03-17T11:25:23.685Z,98899.41
2023-03-17T11:29:35.213Z,98895.63
2023-03-17T11:33:40.533Z,98891.22
2023-03-17T11:37:42.757Z,98884.59
2023-03-17T11:42:10.917Z,98879.47
2023-03-17T11:46:38.163Z,98875.03
2023-03-17T11:50:45.809Z,98873.31
2023-03-17T11:55:25.066Z,98863.97
2023-03-17T11:59:47.659Z,98861.09
2023-03-17T12:04:28.358Z,98865.13
2023-03-17T12:08:45.582Z,98850.00
2023-03-17T12:12:54.257Z,98857.53
2023-03-17T12:17:00.763Z,98857.84
2023-03-17T12:21:33.470Z,98850.06
2023-03-17T12:25:57.907Z,98851.38
2023-03-17T12:30:24.297Z,98845.25
2023-03-17T12:34:36.972Z,98836.81
2023-03-17T12:39:09.427Z,98839.75
2023-03-17T12:43:36.515Z,98830.34
2023-03-17T12:47:38.764Z,98824.53
2023-03-17T12:51:53.825Z,98823.25
2023-03-17T12:56:01.410Z,98828.31
2023-03-17T13:00:15.501Z,98823.66
2023-03-17T13:04:35.578Z,98811.53
2023-03-17T13:08:41.353Z,98810.63
2023-03-17T13:13:04.111Z,98808.28
2023-03-17T13:17:19.976Z,98800.44
2023-03-17T13:21:23.777Z,98801.31
2023-03-17T13:25:38.428Z,98790.34
2023-03-17T13:29:46.289Z,98792.34
2023-03-17T13:33:54.976Z,98784.22
2023-03-17T13:37:59.962Z,98770.34
2023-03-17T13:42:26.734Z,98762.56
2023-03-17T13:46:41.896Z,98769.16
2023-03-17T13:50:44.789Z,98755.66
2023-03-17T13:54:58.835Z,98750.28
2023-03-17T13:59:05.580Z,98752.50
2023-03-17T14:03:29.404Z,98754.47
2023-03-17T14:07:51.079Z,98747.31
2023-03-17T14:11:54.824Z,98746.41
2023-03-17T14:16:33.047Z,98741.06
2023-03-17T14:20:35.334Z,98741.44
2023-03-17T14:24:37.505Z,98725.78
2023-03-17T14:28:40.222Z,98729.19
2023-03-17T14:32:47.415Z,98731.56
2023-03-17T14:36:51.733Z,98727.19
2023-03-17T14:41:00.963Z,98725.59
2023-03-17T14:45:19.246Z,98726.38
2023-03-17T14:49:23.233Z,98717.81
2023-03-17T14:53:26.507Z,98711.25
2023-03-17T14:57:33.413Z,98714.13
2023-03-17T15:01:43.658Z,98710.72
2023-03-17T15:05:46.815Z,98707.75
2023-03-17T15:09:59.816Z,98712.22
2023-03-17T15:14:21.607Z,98712.72
2023-03-17T15:18:25.473Z,98701.94
2023-03-17T15:22:41.587Z,98704.06
2023-03-17T15:26:43.747Z,98708.16
2023-03-17T15:30:51.592Z,98705.56
2023-03-17T15:34:57.219Z,98707.22
2023-03-17T15:38:59.533Z,98700.47
2023-03-17T15:43:01.742Z,98701.66
2023-03-17T15:47:04.437Z,98702.38
2023-03-17T15:51:07.500Z,98703.34
2023-03-17T15:55:21.425Z,98698.66
2023-03-17T15:59:23.850Z,98695.25
2023-03-17T16:03:32.750Z,98697.22
2023-03-17T16:07:35.021Z,98696.63
2023-03-17T16:11:39.388Z,98692.81
2023-03-17T16:15:46.348Z,98696.34
2023-03-17T16:19:48.881Z,98697.47
2023-03-17T16:23:51.067Z,98690.63
2023-03-17T16:27:55.719Z,98690.09
2023-03-17T16:31:57.897Z,98694.22
2023-03-17T16:36:01.434Z,98700.78
2023-03-17T16:40:05.120Z,98686.94
2023-03-17T16:44:11.712Z,98694.19
2023-03-17T16:48:14.994Z,98699.47
2023-03-17T16:52:17.392Z,98702.75
2023-03-17T16:56:22.541Z,98699.19
2023-03-17T17:00:28.577Z,98699.81
2023-03-17T17:04:31.317Z,98698.03
2023-03-17T17:08:33.648Z,98701.13
2023-03-17T17:12:36.023Z,98705.88
2023-03-17T17:16:42.144Z,98698.66
2023-03-17T17:20:46.035Z,98707.38
2023-03-17T17:24:48.246Z,98708.53
2023-03-17T17:28:50.546Z,98716.16
2023-03-17T17:32:53.346Z,98721.03
2023-03-17T17:36:55.633Z,98708.47
2023-03-17T17:40:59.570Z,98718.66
2023-03-17T17:45:02.186Z,98713.59
2023-03-17T17:49:04.621Z,98708.16
2023-03-17T17:53:11.689Z,98717.63
2023-03-17T17:57:14.524Z,98717.66
2023-03-17T18:01:20.562Z,98711.53
2023-03-17T18:05:23.098Z,98714.72
2023-03-17T18:09:25.260Z,98719.72
2023-03-17T18:13:27.475Z,98714.34
2023-03-17T18:17:32.005Z,98712.38
2023-03-17T18:21:36.640Z,98717.22
2023-03-17T18:25:39.000Z,98718.16
2023-03-17T18:29:41.616Z,98717.56
2023-03-17T18:33:47.034Z,98723.41
2023-03-17T18:37:50.940Z,98719.69
2023-03-17T18:41:54.137Z,98720.00
2023-03-17T18:45:56.380Z,98714.78
2023-03-17T18:49:59.787Z,98717.78
2023-03-17T18:54:03.079Z,98725.19
2023-03-17T18:58:05.448Z,98725.66
2023-03-17T19:02:08.692Z,98724.88
2023-03-17T19:06:13.676Z,98725.94
2023-03-17T19:10:16.201Z,98720.00
2023-03-17T19:14:18.399Z,98726.09
2023-03-17T19:18:20.860Z,98718.53
2023-03-17T19:22:23.294Z,98721.06
2023-03-17T19:26:26.078Z,98730.63
2023-03-17T19:30:28.374Z,98736.44
2023-03-17T19:34:30.636Z,98736.28
2023-03-17T19:38:33.120Z,98732.28
2023-03-17T19:42:35.609Z,98744.16
2023-03-17T19:46:38.439Z,98752.88
2023-03-17T19:50:41.217Z,98756.69
2023-03-17T19:54:45.987Z,98752.06
2023-03-17T19:58:48.253Z,98756.88
2023-03-17T20:02:51.388Z,98762.66
2023-03-17T20:06:55.782Z,98771.16
2023-03-17T20:10:58.734Z,98757.78
2023-03-17T20:15:01.620Z,98768.19
2023-03-17T20:19:03.971Z,98764.84
2023-03-17T20:23:06.104Z,98770.19
2023-03-17T20:27:10.643Z,98778.66
2023-03-17T20:31:12.775Z,98779.09
2023-03-17T20:35:14.913Z,98781.19
2023-03-17T20:39:20.061Z,98780.84
2023-03-17T20:43:22.711Z,98788.88
2023-03-17T20:47:24.951Z,98780.03
2023-03-17T20:51:27.972Z,98777.25
2023-03-17T20:55:30.935Z,98787.03
2023-03-17T20:59:34.566Z,98794.53
2023-03-17T21:03:37.424Z,98793.34
2023-03-17T21:07:39.670Z,98793.34
2023-03-17T21:11:42.276Z,98792.09
2023-03-17T21:15:44.606Z,98789.81
2023-03-17T21:19:47.464Z,98783.84
2023-03-17T21:23:49.650Z,98790.50
2023-03-17T21:27:52.850Z,98797.38
2023-03-17T21:31:56.949Z,98787.75
2023-03-17T21:35:59.558Z,98795.53
2023-03-17T21:40:02.025Z,98802.63
2023-03-17T21:44:06.301Z,98801.44
2023-03-17T21:48:08.719Z,98803.53
2023-03-17T21:52:11.454Z,98809.59
2023-03-17T21:56:14.147Z,98816.75
2023-03-17T22:00:17.442Z,98813.88
2023-03-17T22:04:19.978Z,98816.94
2023-03-17T22:08:22.832Z,98810.44
2023-03-17T22:12:25.540Z,98813.50
2023-03-17T22:16:28.224Z,98808.31
2023-03-17T22:20:30.744Z,98808.56
2023-03-17T22:24:33.672Z,98812.66
2023-03-17T22:28:36.042Z,98811.84
2023-03-17T22:32:38.280Z,98821.44
2023-03-17T22:36:41.257Z,98815.56
2023-03-17T22:40:43.652Z,98807.19
2023-03-17T22:44:48.580Z,98810.44
2023-03-17T22:48:51.962Z,98822.44
2023-03-17T22:52:54.434Z,98824.69
2023-03-17T22:56:57.136Z,98825.59
2023-03-17T23:01:00.279Z,98831.94
2023-03-17T23:05:02.949Z,98835.22
2023-03-17T23:09:05.858Z,98828.13
2023-03-17T23:13:08.778Z,98830.94
2023-03-17T23:17:11.141Z,98836.31
2023-03-17T23:21:21.372Z,98837.38
2023-03-17T23:25:25.433Z,98837.59
2023-03-17T23:29:27.863Z,98839.31
2023-03-17T23:33:31.091Z,98837.22
2023-03-17T23:37:33.476Z,98832.56
2023-03-17T23:41:36.376Z,98841.50
2023-03-17T23:45:41.341Z,98830.84
2023-03-17T23:49:44.008Z,98846.53
2023-03-17T23:53:46.585Z,98839.69
2023-03-17T23:57:50.301Z,98848.72
